createdAt,value
2023-03-29T00:00:31.366Z,66.55
2023-03-29T00:02:59.360Z,67.93
2023-03-29T00:05:27.316Z,67.38
2023-03-29T00:08:01.685Z,67.21
2023-03-29T00:10:32.133Z,68.88
2023-03-29T00:13:00.147Z,68.62
2023-03-29T00:15:28.040Z,68.11
2023-03-29T00:17:55.789Z,69.22
2023-03-29T00:20:23.579Z,69.72
2023-03-29T00:22:51.263Z,69.67
2023-03-29T00:25:19.196Z,69.13
2023-03-29T00:27:48.236Z,69.74
2023-03-29T00:30:16.435Z,70.94
2023-03-29T00:32:44.667Z,70.61
2023-03-29T00:35:12.970Z,70.75
2023-03-29T00:37:41.268Z,71.05
2023-03-29T00:40:12.707Z,71.11
2023-03-29T00:42:40.568Z,71.64
2023-03-29T00:45:18.859Z,72.22
2023-03-29T00:47:49.667Z,71.89
2023-03-29T00:50:22.371Z,72.11
2023-03-29T00:52:55.861Z,72.54
2023-03-29T00:55:26.532Z,72.32
2023-03-29T00:57:56.884Z,73.14
2023-03-29T01:00:31.826Z,73.40
2023-03-29T01:03:02.612Z,72.89
2023-03-29T01:05:33.450Z,74.08
2023-03-29T01:08:06.645Z,74.48
2023-03-29T01:10:41.072Z,74.16
2023-03-29T01:13:12.426Z,74.85
2023-03-29T01:15:45.042Z,74.11
2023-03-29T01:18:13.970Z,74.99
2023-03-29T01:20:52.400Z,74.29
2023-03-29T01:23:41.017Z,74.77
2023-03-29T01:26:18.202Z,74.50
2023-03-29T01:28:52.641Z,74.46
2023-03-29T01:31:25.565Z,74.44
2023-03-29T01:33:59.808Z,74.63
2023-03-29T01:36:34.969Z,74.30
2023-03-29T01:39:07.268Z,74.22
2023-03-29T01:41:45.152Z,74.55
2023-03-29T01:44:19.605Z,74.76
2023-03-29T01:46:48.870Z,74.50
2023-03-29T01:49:24.714Z,74.62
2023-03-29T01:51:56.162Z,75.34
2023-03-29T01:54:29.170Z,74.52
2023-03-29T01:56:59.325Z,74.21
2023-03-29T01:59:32.248Z,74.56
2023-03-29T02:02:03.316Z,74.41
2023-03-29T02:04:35.051Z,74.36
2023-03-29T02:07:06.014Z,74.30
2023-03-29T02:09:37.162Z,75.19
2023-03-29T02:12:07.994Z,74.46
2023-03-29T02:14:38.240Z,74.76
2023-03-29T02:17:18.202Z,75.08
2023-03-29T02:19:50.212Z,74.79
2023-03-29T02:22:26.437Z,75.22
2023-03-29T02:24:59.091Z,74.49
2023-03-29T02:27:28.924Z,74.57
2023-03-29T02:29:58.124Z,74.95
2023-03-29T02:32:32.131Z,74.59
2023-03-29T02:35:04.487Z,74.66
2023-03-29T02:37:36.330Z,74.12
2023-03-29T02:40:12.455Z,73.95
2023-03-29T02:42:40.959Z,74.89
2023-03-29T02:45:14.093Z,74.02
2023-03-29T02:47:46.192Z,74.24
2023-03-29T02:50:14.261Z,74.19
2023-03-29T02:52:47.059Z,73.91
2023-03-29T02:55:18.659Z,73.17
2023-03-29T02:57:46.590Z,73.35
2023-03-29T03:00:20.014Z,73.12
2023-03-29T03:02:50.814Z,73.49
2023-03-29T03:05:19.482Z,73.20
2023-03-29T03:07:47.410Z,73.28
2023-03-29T03:10:15.897Z,73.46
2023-03-29T03:12:43.690Z,73.30
2023-03-29T03:15:12.023Z,73.49
2023-03-29T03:17:42.223Z,73.06
2023-03-29T03:20:13.707Z,73.03
2023-03-29T03:22:45.537Z,72.61
2023-03-29T03:25:13.377Z,72.86
2023-03-29T03:27:41.278Z,72.77
2023-03-29T03:30:10.940Z,73.03
2023-03-29T03:32:51.969Z,73.29
2023-03-29T03:35:42.932Z,73.67
2023-03-29T03:38:10.804Z,73.21
2023-03-29T03:40:38.559Z,73.33
2023-03-29T03:43:06.759Z,72.78
2023-03-29T03:45:34.857Z,73.12
2023-03-29T03:48:12.378Z,73.02
2023-03-29T03:50:50.397Z,73.00
2023-03-29T03:53:18.938Z,72.81
2023-03-29T03:56:08.986Z,73.33
2023-03-29T03:58:47.545Z,73.33
2023-03-29T04:01:17.003Z,73.01
2023-03-29T04:03:55.429Z,72.69
2023-03-29T04:06:25.353Z,72.77
2023-03-29T04:09:22.744Z,72.81
2023-03-29T04:12:01.447Z,73.28
2023-03-29T04:14:31.645Z,73.07
2023-03-29T04:17:06.439Z,72.86
2023-03-29T04:19:56.359Z,72.73
2023-03-29T04:22:25.234Z,73.11
2023-03-29T04:24:53.149Z,72.96
2023-03-29T04:27:39.938Z,72.79
2023-03-29T04:30:18.817Z,72.84
2023-03-29T04:33:09.546Z,72.76
2023-03-29T04:35:40.974Z,72.78
2023-03-29T04:38:12.835Z,72.62
2023-03-29T04:40:42.034Z,72.60
2023-03-29T04:43:14.412Z,72.16
2023-03-29T04:45:50.297Z,72.64
2023-03-29T04:48:36.606Z,72.21
2023-03-29T04:51:07.213Z,72.28
2023-03-29T04:53:35.231Z,72.15
2023-03-29T04:56:03.057Z,72.73
2023-03-29T04:58:53.625Z,72.25
2023-03-29T05:01:22.350Z,72.51
2023-03-29T05:03:57.770Z,72.17
2023-03-29T05:06:33.291Z,72.32
2023-03-29T05:09:01.208Z,72.05
2023-03-29T05:11:34.184Z,72.19
2023-03-29T05:14:03.359Z,72.21
2023-03-29T05:16:35.648Z,72.10
2023-03-29T05:19:03.569Z,71.99
2023-03-29T05:21:35.301Z,71.90
2023-03-29T05:24:07.429Z,71.67
2023-03-29T05:26:58.719Z,71.47
2023-03-29T05:29:28.898Z,71.48
2023-03-29T05:32:08.441Z,71.39
2023-03-29T05:34:37.009Z,71.12
2023-03-29T05:37:06.101Z,71.65
2023-03-29T05:39:44.340Z,71.13
2023-03-29T05:42:15.458Z,70.98
2023-03-29T05:45:10.543Z,70.44
2023-03-29T05:47:38.491Z,70.28
2023-03-29T05:50:10.248Z,70.58
2023-03-29T05:52:41.122Z,70.31
2023-03-29T05:55:10.293Z,70.17
2023-03-29T05:57:38.673Z,70.21
2023-03-29T06:00:17.679Z,70.44
2023-03-29T06:02:45.696Z,70.17
2023-03-29T06:05:13.877Z,70.24
2023-03-29T06:07:58.074Z,69.97
2023-03-29T06:10:45.435Z,69.90
2023-03-29T06:13:37.192Z,69.88
2023-03-29T06:16:05.701Z,70.05
2023-03-29T06:18:33.538Z,70.02
2023-03-29T06:21:03.439Z,69.78
2023-03-29T06:23:33.359Z,69.53
2023-03-29T06:26:01.503Z,69.61
2023-03-29T06:28:29.780Z,69.42
2023-03-29T06:33:34.345Z,69.14
2023-03-29T06:36:16.231Z,68.99
2023-03-29T06:38:47.137Z,68.51
2023-03-29T06:41:24.790Z,68.27
2023-03-29T06:44:07.426Z,68.15
2023-03-29T06:46:39.739Z,68.02
2023-03-29T06:49:08.921Z,68.04
2023-03-29T06:52:08.911Z,67.79
2023-03-29T06:54:38.836Z,67.54
2023-03-29T06:57:07.981Z,67.58
2023-03-29T06:59:35.769Z,67.69
2023-03-29T07:02:25.297Z,67.82
2023-03-29T07:04:59.125Z,67.76
2023-03-29T07:07:43.973Z,67.53
2023-03-29T07:10:32.101Z,67.63
2023-03-29T07:13:33.058Z,67.60
2023-03-29T07:16:03.944Z,67.65
2023-03-29T07:18:39.965Z,67.93
2023-03-29T07:21:09.182Z,67.51
2023-03-29T07:23:37.471Z,67.52
2023-03-29T07:26:08.485Z,67.28
2023-03-29T07:28:37.816Z,67.17
2023-03-29T07:31:07.162Z,67.14
2023-03-29T07:33:40.839Z,67.03
2023-03-29T07:36:10.430Z,67.06
2023-03-29T07:38:38.769Z,66.94
2023-03-29T07:41:16.741Z,66.70
2023-03-29T07:44:09.107Z,66.49
2023-03-29T07:46:37.343Z,66.06
2023-03-29T07:49:05.561Z,65.72
2023-03-29T07:51:34.186Z,65.50
2023-03-29T07:54:07.785Z,65.34
2023-03-29T07:56:50.983Z,65.23
2023-03-29T07:59:39.554Z,65.78
2023-03-29T08:02:22.217Z,66.07
2023-03-29T08:04:54.251Z,66.06
2023-03-29T08:07:44.122Z,65.69
2023-03-29T08:10:19.543Z,65.93
2023-03-29T08:13:09.670Z,66.55
2023-03-29T08:15:50.182Z,66.95
2023-03-29T08:18:38.492Z,67.65
2023-03-29T08:21:06.633Z,67.68
2023-03-29T08:23:34.361Z,67.66
2023-03-29T08:26:11.416Z,67.55
2023-03-29T08:28:41.533Z,67.37
2023-03-29T08:31:11.027Z,67.35
2023-03-29T08:33:42.821Z,67.02
2023-03-29T08:36:40.219Z,66.30
2023-03-29T08:39:19.617Z,66.50
2023-03-29T08:42:06.903Z,66.21
2023-03-29T08:44:50.008Z,65.90
2023-03-29T08:47:26.310Z,65.26
2023-03-29T08:49:57.939Z,65.28
2023-03-29T08:52:37.874Z,65.20
2023-03-29T08:55:29.858Z,64.46
2023-03-29T08:58:19.462Z,64.18
2023-03-29T09:00:52.910Z,64.21
2023-03-29T09:03:23.439Z,63.84
2023-03-29T09:05:59.364Z,63.11
2023-03-29T09:08:27.654Z,63.24
2023-03-29T09:11:11.950Z,62.50
2023-03-29T09:13:49.181Z,62.60
2023-03-29T09:16:22.780Z,61.40
2023-03-29T09:19:02.989Z,61.33
2023-03-29T09:21:36.553Z,60.91
2023-03-29T09:24:21.750Z,60.37
2023-03-29T09:27:12.121Z,59.38
2023-03-29T09:29:56.675Z,59.40
2023-03-29T09:32:48.197Z,58.77
2023-03-29T09:35:22.364Z,59.09
2023-03-29T09:37:53.410Z,58.10
2023-03-29T09:40:25.360Z,58.12
2023-03-29T09:43:05.467Z,58.26
2023-03-29T09:45:33.500Z,58.12
2023-03-29T09:48:11.202Z,57.59
2023-03-29T09:50:43.023Z,57.43
2023-03-29T09:53:12.359Z,57.83
2023-03-29T09:55:48.993Z,57.47
2023-03-29T09:58:32.959Z,57.22
2023-03-29T10:01:03.163Z,57.48
2023-03-29T10:03:34.885Z,56.65
2023-03-29T10:06:14.891Z,57.88
2023-03-29T10:08:57.577Z,57.58
2023-03-29T10:11:31.991Z,57.83
2023-03-29T10:14:03.998Z,57.19
2023-03-29T10:16:37.209Z,57.57
2023-03-29T10:19:19.565Z,57.54
2023-03-29T10:21:49.889Z,57.80
2023-03-29T10:24:20.717Z,57.67
2023-03-29T10:26:51.787Z,57.78
2023-03-29T10:29:19.631Z,57.54
2023-03-29T10:31:47.990Z,57.26
2023-03-29T10:34:18.570Z,56.67
2023-03-29T10:36:52.156Z,56.33
2023-03-29T10:39:20.473Z,55.51
2023-03-29T10:41:53.158Z,55.60
2023-03-29T10:44:32.798Z,55.33
2023-03-29T10:47:09.838Z,54.50
2023-03-29T10:49:47.079Z,55.22
2023-03-29T10:52:17.219Z,56.03
2023-03-29T10:54:45.582Z,56.22
2023-03-29T10:57:17.015Z,56.04
2023-03-29T10:59:53.708Z,55.87
2023-03-29T11:03:01.452Z,57.01
2023-03-29T11:05:36.785Z,57.64
2023-03-29T11:08:29.021Z,58.34
2023-03-29T11:11:08.769Z,58.43
2023-03-29T11:13:45.719Z,59.50
2023-03-29T11:16:28.148Z,59.45
2023-03-29T11:19:27.138Z,58.85
2023-03-29T11:22:06.646Z,58.65
2023-03-29T11:24:48.059Z,59.75
2023-03-29T11:27:27.349Z,60.80
2023-03-29T11:30:07.714Z,61.64
2023-03-29T11:32:47.033Z,61.54
2023-03-29T11:35:31.639Z,61.11
2023-03-29T11:38:09.165Z,61.73
2023-03-29T11:40:47.825Z,61.14
2023-03-29T11:43:20.514Z,60.37
2023-03-29T11:45:54.913Z,60.19
2023-03-29T11:48:26.779Z,60.56
2023-03-29T11:50:59.906Z,61.01
2023-03-29T11:53:36.365Z,61.45
2023-03-29T11:56:13.176Z,62.19
2023-03-29T11:58:45.792Z,61.77
2023-03-29T12:01:19.858Z,63.03
2023-03-29T12:03:52.365Z,63.21
2023-03-29T12:06:24.741Z,63.00
2023-03-29T12:08:57.289Z,62.71
2023-03-29T12:11:30.557Z,62.79
2023-03-29T12:14:04.629Z,63.23
2023-03-29T12:16:37.077Z,63.04
2023-03-29T12:19:11.633Z,63.07
2023-03-29T12:21:42.390Z,63.38
2023-03-29T12:24:14.414Z,63.84
2023-03-29T12:26:58.367Z,65.29
2023-03-29T12:29:52.353Z,66.02
2023-03-29T12:32:36.857Z,66.80
2023-03-29T12:35:34.410Z,66.93
2023-03-29T12:38:23.232Z,66.12
2023-03-29T12:41:19.090Z,67.39
2023-03-29T12:44:07.770Z,67.42
2023-03-29T12:46:42.120Z,67.67
2023-03-29T12:49:14.365Z,68.31
2023-03-29T12:51:43.892Z,67.86
2023-03-29T12:54:16.907Z,67.96
2023-03-29T12:56:58.622Z,67.83
2023-03-29T12:59:36.832Z,66.32
2023-03-29T13:02:34.737Z,66.78
2023-03-29T13:05:04.829Z,65.19
2023-03-29T13:07:45.651Z,65.14
2023-03-29T13:10:36.605Z,64.75
2023-03-29T13:13:19.911Z,64.35
2023-03-29T13:15:48.712Z,63.59
2023-03-29T13:18:41.442Z,64.13
2023-03-29T13:21:18.696Z,63.89
2023-03-29T13:23:57.009Z,62.77
2023-03-29T13:26:44.363Z,62.21
2023-03-29T13:29:49.291Z,61.78
2023-03-29T13:32:32.723Z,62.40
2023-03-29T13:35:08.176Z,62.69
2023-03-29T13:37:48.720Z,63.17
2023-03-29T13:40:34.376Z,62.80
2023-03-29T13:43:09.862Z,62.80
2023-03-29T13:45:40.455Z,63.34
2023-03-29T13:48:23.332Z,63.98
2023-03-29T13:50:56.391Z,64.86
2023-03-29T13:53:30.568Z,64.07
2023-03-29T13:55:59.841Z,63.89
2023-03-29T13:58:36.411Z,64.93
2023-03-29T14:01:14.356Z,64.43
2023-03-29T14:03:45.816Z,64.98
2023-03-29T14:06:16.789Z,64.82
2023-03-29T14:08:45.719Z,65.17
2023-03-29T14:11:22.977Z,65.48
2023-03-29T14:13:54.031Z,66.27
2023-03-29T14:16:23.574Z,66.36
2023-03-29T14:18:52.802Z,66.73
2023-03-29T14:21:21.633Z,66.99
2023-03-29T14:23:56.226Z,67.27
2023-03-29T14:26:25.967Z,67.85
2023-03-29T14:28:56.452Z,67.86
2023-03-29T14:31:30.410Z,68.21
2023-03-29T14:33:59.955Z,69.12
2023-03-29T14:36:29.212Z,69.97
2023-03-29T14:39:02.115Z,70.03
2023-03-29T14:41:31.625Z,69.90
2023-03-29T14:44:00.243Z,69.69
2023-03-29T14:46:30.118Z,69.63
2023-03-29T14:48:58.406Z,69.79
2023-03-29T14:51:30.216Z,69.99
2023-03-29T14:53:59.358Z,69.75
2023-03-29T14:56:28.133Z,69.68
2023-03-29T14:58:57.923Z,69.79
2023-03-29T15:01:27.821Z,69.75
2023-03-29T15:04:02.507Z,69.54
2023-03-29T15:06:31.552Z,69.35
2023-03-29T15:09:05.954Z,69.03
2023-03-29T15:11:35.114Z,68.66
2023-03-29T15:14:05.753Z,68.97
2023-03-29T15:16:34.349Z,68.78
2023-03-29T15:19:04.391Z,68.84
2023-03-29T15:21:35.400Z,68.98
2023-03-29T15:24:04.727Z,68.51
2023-03-29T15:26:34.185Z,68.67
2023-03-29T15:29:08.022Z,68.63
2023-03-29T15:31:37.306Z,68.21
2023-03-29T15:34:09.270Z,68.00
2023-03-29T15:36:42.296Z,68.09
2023-03-29T15:39:13.089Z,68.23
2023-03-29T15:41:41.385Z,68.52
2023-03-29T15:44:09.334Z,68.82
2023-03-29T15:46:37.366Z,68.95
2023-03-29T15:49:07.298Z,69.09
2023-03-29T15:51:35.140Z,68.65
2023-03-29T15:54:02.954Z,68.43
2023-03-29T15:56:32.928Z,68.39
2023-03-29T15:59:01.666Z,67.91
2023-03-29T16:01:35.491Z,67.90
2023-03-29T16:04:04.343Z,68.11
2023-03-29T16:06:34.466Z,67.88
2023-03-29T16:09:02.223Z,68.25
2023-03-29T16:11:30.055Z,68.18
2023-03-29T16:13:58.183Z,68.69
2023-03-29T16:16:27.048Z,68.71
2023-03-29T16:18:54.779Z,69.01
2023-03-29T16:21:24.298Z,68.96
2023-03-29T16:23:53.461Z,69.18
2023-03-29T16:26:21.774Z,69.18
2023-03-29T16:28:49.616Z,69.48
2023-03-29T16:31:17.364Z,69.48
2023-03-29T16:33:45.161Z,69.90
2023-03-29T16:36:13.092Z,69.78
2023-03-29T16:38:40.910Z,70.18
2023-03-29T16:41:14.846Z,70.41
2023-03-29T16:43:42.826Z,70.45
2023-03-29T16:46:11.299Z,70.75
2023-03-29T16:48:39.465Z,70.81
2023-03-29T16:51:07.985Z,70.87
2023-03-29T16:53:35.804Z,71.26
2023-03-29T16:56:04.606Z,71.05
2023-03-29T16:58:33.890Z,71.61
2023-03-29T17:01:09.620Z,71.94
2023-03-29T17:03:38.321Z,72.08
2023-03-29T17:06:07.500Z,72.47
2023-03-29T17:08:35.921Z,72.89
2023-03-29T17:11:04.794Z,73.39
2023-03-29T17:13:34.485Z,73.38
2023-03-29T17:16:02.483Z,73.99
2023-03-29T17:18:30.837Z,73.55
2023-03-29T17:20:59.852Z,73.46
2023-03-29T17:23:27.628Z,73.41
2023-03-29T17:25:56.512Z,73.41
2023-03-29T17:28:24.919Z,73.64
2023-03-29T17:30:54.034Z,73.58
2023-03-29T17:33:26.075Z,73.59
2023-03-29T17:35:54.045Z,74.00
2023-03-29T17:38:21.816Z,73.82
2023-03-29T17:40:53.238Z,73.89
2023-03-29T17:43:21.272Z,73.28
2023-03-29T17:45:51.900Z,73.46
2023-03-29T17:48:21.566Z,73.70
2023-03-29T17:50:49.309Z,73.33
2023-03-29T17:53:17.223Z,73.04
2023-03-29T17:55:45.048Z,73.07
2023-03-29T17:58:12.839Z,73.38
2023-03-29T18:00:40.674Z,73.21
2023-03-29T18:03:08.492Z,73.13
2023-03-29T18:05:38.057Z,73.12
2023-03-29T18:08:05.826Z,73.73
2023-03-29T18:10:33.603Z,74.04
2023-03-29T18:13:01.582Z,73.98
2023-03-29T18:15:29.387Z,74.69
2023-03-29T18:17:57.217Z,74.52
2023-03-29T18:20:24.999Z,74.69
2023-03-29T18:22:54.094Z,74.88
2023-03-29T18:25:22.084Z,74.14
2023-03-29T18:27:50.039Z,74.35
2023-03-29T18:30:17.928Z,74.13
2023-03-29T18:32:46.067Z,74.42
2023-03-29T18:35:13.816Z,74.27
2023-03-29T18:37:41.564Z,74.27
2023-03-29T18:40:11.140Z,74.59
2023-03-29T18:42:38.886Z,74.75
2023-03-29T18:45:07.546Z,75.41
2023-03-29T18:47:35.533Z,75.47
2023-03-29T18:50:03.430Z,75.51
2023-03-29T18:52:31.188Z,75.86
2023-03-29T18:54:58.918Z,75.88
2023-03-29T18:57:28.056Z,75.88
2023-03-29T18:59:55.817Z,75.88
2023-03-29T19:02:23.631Z,76.02
2023-03-29T19:04:51.621Z,76.28
2023-03-29T19:07:20.568Z,76.10
2023-03-29T19:09:48.329Z,76.00
2023-03-29T19:12:16.033Z,75.68
2023-03-29T19:14:45.096Z,75.65
2023-03-29T19:17:12.985Z,75.86
2023-03-29T19:19:40.700Z,76.18
2023-03-29T19:22:08.470Z,76.32
2023-03-29T19:24:36.204Z,76.21
2023-03-29T19:27:04.132Z,75.95
2023-03-29T19:29:31.831Z,76.24
2023-03-29T19:32:01.008Z,76.19
2023-03-29T19:34:29.692Z,75.66
2023-03-29T19:36:58.444Z,75.08
2023-03-29T19:39:27.813Z,75.27
2023-03-29T19:41:55.691Z,75.26
2023-03-29T19:44:24.440Z,75.36
2023-03-29T19:46:52.634Z,75.38
2023-03-29T19:49:21.792Z,75.72
2023-03-29T19:51:49.504Z,75.39
2023-03-29T19:54:17.431Z,75.47
2023-03-29T19:56:45.425Z,75.13
2023-03-29T19:59:14.899Z,75.20
2023-03-29T20:01:51.188Z,75.38
2023-03-29T20:04:22.596Z,75.31
2023-03-29T20:06:50.550Z,75.35
2023-03-29T20:09:18.585Z,75.38
2023-03-29T20:11:46.755Z,75.22
2023-03-29T20:14:15.076Z,75.13
2023-03-29T20:16:44.010Z,75.23
2023-03-29T20:19:14.059Z,75.15
2023-03-29T20:21:43.852Z,75.35
2023-03-29T20:24:12.570Z,75.30
2023-03-29T20:26:40.306Z,75.10
2023-03-29T20:29:08.125Z,75.14
2023-03-29T20:31:36.043Z,75.24
2023-03-29T20:34:03.914Z,74.69
2023-03-29T20:36:32.007Z,74.60
2023-03-29T20:39:01.281Z,74.90
2023-03-29T20:41:29.041Z,74.72
2023-03-29T20:43:59.376Z,74.85
2023-03-29T20:46:33.259Z,74.59
2023-03-29T20:49:01.488Z,74.70
2023-03-29T20:51:31.782Z,74.57
2023-03-29T20:54:04.353Z,74.43
2023-03-29T20:56:34.340Z,74.53
2023-03-29T20:59:03.891Z,74.70
2023-03-29T21:01:31.734Z,74.73
2023-03-29T21:03:59.784Z,74.90
2023-03-29T21:06:27.868Z,75.16
2023-03-29T21:08:55.695Z,75.15
2023-03-29T21:11:24.841Z,75.27
2023-03-29T21:13:53.845Z,75.48
2023-03-29T21:16:21.699Z,75.56
2023-03-29T21:18:49.509Z,75.72
2023-03-29T21:21:17.394Z,75.78
2023-03-29T21:23:45.181Z,75.60
2023-03-29T21:26:13.199Z,75.86
2023-03-29T21:28:42.443Z,76.00
2023-03-29T21:31:10.835Z,76.33
2023-03-29T21:33:38.726Z,76.34
2023-03-29T21:36:08.201Z,76.44
2023-03-29T21:38:36.134Z,76.53
2023-03-29T21:41:04.138Z,76.48
2023-03-29T21:43:32.045Z,76.75
2023-03-29T21:46:01.283Z,77.20
2023-03-29T21:48:29.080Z,77.26
2023-03-29T21:50:56.891Z,76.97
2023-03-29T21:53:25.000Z,77.37
2023-03-29T21:55:53.636Z,77.40
2023-03-29T21:58:21.731Z,77.78
2023-03-29T22:00:49.924Z,77.83
2023-03-29T22:03:19.228Z,78.18
2023-03-29T22:05:57.123Z,78.33
2023-03-29T22:08:26.434Z,78.12
2023-03-29T22:10:56.759Z,78.02
2023-03-29T22:13:26.126Z,78.00
2023-03-29T22:15:58.612Z,78.35
2023-03-29T22:18:29.996Z,78.38
2023-03-29T22:20:58.098Z,78.23
2023-03-29T22:23:25.888Z,78.50
2023-03-29T22:25:53.643Z,78.57
2023-03-29T22:28:21.577Z,78.69
2023-03-29T22:30:49.494Z,78.69
2023-03-29T22:33:17.307Z,78.94
2023-03-29T22:35:46.562Z,79.00
2023-03-29T22:38:14.404Z,79.33
2023-03-29T22:40:42.296Z,79.56
2023-03-29T22:43:10.183Z,79.89
2023-03-29T22:45:38.029Z,80.21
2023-03-29T22:48:06.246Z,79.99
2023-03-29T22:50:34.113Z,80.30
2023-03-29T22:53:03.158Z,80.54
2023-03-29T22:55:31.015Z,80.61
2023-03-29T22:57:58.711Z,80.62
2023-03-29T23:00:26.438Z,80.29
2023-03-29T23:02:54.288Z,80.51
2023-03-29T23:05:22.094Z,80.67
2023-03-29T23:07:49.859Z,80.86
2023-03-29T23:10:19.211Z,81.42
2023-03-29T23:12:48.993Z,80.81
2023-03-29T23:15:17.121Z,80.84
2023-03-29T23:17:45.425Z,80.87
2023-03-29T23:20:13.821Z,81.17
2023-03-29T23:22:41.562Z,81.35
2023-03-29T23:25:10.018Z,81.05
2023-03-29T23:27:39.057Z,81.37
2023-03-29T23:30:09.561Z,81.48
2023-03-29T23:32:37.550Z,81.40
2023-03-29T23:35:06.077Z,81.44
2023-03-29T23:37:33.902Z,81.36
2023-03-29T23:40:01.654Z,81.31
2023-03-29T23:42:30.828Z,81.52
2023-03-29T23:45:00.105Z,81.43
2023-03-29T23:47:27.883Z,81.69
2023-03-29T23:49:55.888Z,81.49
2023-03-29T23:52:23.599Z,81.21
2023-03-29T23:54:51.319Z,81.63
2023-03-29T23:57:19.348Z,81.53
2023-03-29T23:59:47.148Z,81.65
